Time;durP1;ratioP1;P1;durP2;ratioP2;P2;SDS_P1;SDS_P2;PMS_P1;PMS_P2;Temp;Humidity;BMP_temperature;BMP_pressure;BME280_temperature;BME280_humidity;BME280_pressure;Samples;Min_cycle;Max_cycle;Signal;HPM_P1;HPM_P2
2023/09/22 00:00:19;;;;;;;11.20;1.88;;;20.10;54.80;;;;;;5050910;28;20028;-66
2023/09/22 00:02:47;;;;;;;5.50;0.90;;;20.60;54.00;;;;;;5047978;28;20192;-65
2023/09/22 00:05:14;;;;;;;6.00;0.90;;;20.70;53.00;;;;;;5048518;28;20471;-66
2023/09/22 00:07:42;;;;;;;10.95;1.50;;;21.40;50.50;;;;;;5047688;28;20078;-65
2023/09/22 00:10:12;;;;;;;8.82;1.10;;;21.20;50.00;;;;;;5042475;28;20335;-65
2023/09/22 00:12:39;;;;;;;6.25;1.02;;;20.60;52.00;;;;;;5048082;28;20172;-65
2023/09/22 00:15:08;;;;;;;10.82;1.20;;;20.00;53.00;;;;;;5046191;28;20509;-65
2023/09/22 00:17:36;;;;;;;6.05;1.40;;;20.00;53.00;;;;;;5051817;28;20037;-65
2023/09/22 00:20:08;;;;;;;9.23;1.30;;;20.00;53.70;;;;;;5046744;28;20032;-66
2023/09/22 00:22:35;;;;;;;13.27;1.20;;;20.40;51.90;;;;;;5046601;28;20047;-65
2023/09/22 00:25:03;;;;;;;7.82;1.35;;;20.40;51.50;;;;;;5049536;28;20100;-66
2023/09/22 00:27:31;;;;;;;9.50;1.25;;;20.00;52.70;;;;;;5061490;28;20208;-66
2023/09/22 00:29:58;;;;;;;7.05;1.10;;;19.90;53.70;;;;;;5051230;28;20041;-64
2023/09/22 00:32:25;;;;;;;7.40;1.38;;;19.90;53.80;;;;;;5044531;28;20071;-64
2023/09/22 00:34:53;;;;;;;7.10;1.10;;;20.00;53.20;;;;;;5049521;28;20025;-64
2023/09/22 00:37:20;;;;;;;9.98;1.00;;;20.00;53.60;;;;;;5051269;28;20472;-64
2023/09/22 00:39:48;;;;;;;5.53;1.17;;;19.60;52.50;;;;;;5042690;28;20017;-64
2023/09/22 00:42:15;;;;;;;5.28;0.88;;;19.30;52.30;;;;;;5048070;28;20182;-65
2023/09/22 00:44:43;;;;;;;8.35;0.90;;;19.50;51.80;;;;;;5051205;28;20117;-64
2023/09/22 00:47:15;;;;;;;5.78;1.15;;;19.40;51.20;;;;;;5052703;28;20025;-65
2023/09/22 00:49:48;;;;;;;7.30;0.93;;;19.30;51.80;;;;;;5047355;28;20044;-66
2023/09/22 00:52:18;;;;;;;7.25;0.80;;;19.30;52.70;;;;;;5052013;28;20040;-65
2023/09/22 00:54:47;;;;;;;8.60;1.58;;;19.80;50.80;;;;;;5048506;28;20469;-65
2023/09/22 00:57:14;;;;;;;7.95;2.08;;;19.80;51.20;;;;;;5048883;28;20029;-65
2023/09/22 00:59:42;;;;;;;6.32;1.13;;;20.00;50.10;;;;;;5045130;28;20036;-65
2023/09/22 01:02:13;;;;;;;6.75;0.85;;;20.20;50.20;;;;;;5054126;28;20466;-66
2023/09/22 01:04:41;;;;;;;9.77;1.38;;;20.40;50.30;;;;;;5055364;28;20110;-66
2023/09/22 01:07:09;;;;;;;2.55;0.73;;;20.30;51.30;;;;;;5059231;28;20079;-64
2023/09/22 01:09:37;;;;;;;5.78;1.17;;;20.20;50.90;;;;;;5058991;28;20024;-65
2023/09/22 01:12:05;;;;;;;4.68;0.80;;;20.20;51.10;;;;;;5050250;28;20052;-64
2023/09/22 01:14:32;;;;;;;6.97;1.00;;;20.00;51.50;;;;;;5050897;28;20059;-65
2023/09/22 01:17:00;;;;;;;4.03;1.30;;;19.90;51.60;;;;;;5048173;28;20107;-65
2023/09/22 01:19:27;;;;;;;9.70;0.90;;;19.90;52.30;;;;;;5054475;28;20527;-65
2023/09/22 01:21:54;;;;;;;6.72;1.05;;;21.00;52.90;;;;;;5053409;28;20088;-65
2023/09/22 01:24:22;;;;;;;11.85;1.20;;;22.30;50.80;;;;;;5050787;28;20106;-66
2023/09/22 01:26:52;;;;;;;6.03;1.48;;;22.80;47.10;;;;;;5047576;28;20049;-67
2023/09/22 01:29:19;;;;;;;9.32;1.40;;;22.30;48.50;;;;;;5050151;28;20033;-66
2023/09/22 01:31:47;;;;;;;6.40;1.17;;;21.40;49.10;;;;;;5054106;28;20055;-66
2023/09/22 01:34:15;;;;;;;4.75;0.85;;;20.90;50.30;;;;;;5057083;28;20033;-66
2023/09/22 01:36:43;;;;;;;6.95;1.42;;;20.30;50.60;;;;;;5052945;28;20025;-66
2023/09/22 01:39:13;;;;;;;6.35;0.80;;;20.10;51.80;;;;;;5055977;28;20115;-66
2023/09/22 01:41:41;;;;;;;5.40;0.73;;;20.00;52.10;;;;;;5051869;28;20029;-66
2023/09/22 01:44:11;;;;;;;7.05;1.15;;;20.20;51.50;;;;;;5054841;28;20045;-66
2023/09/22 01:46:39;;;;;;;4.03;0.80;;;20.20;51.40;;;;;;5047640;28;20051;-65
2023/09/22 01:49:06;;;;;;;4.15;1.05;;;20.00;52.20;;;;;;5049856;28;20615;-67
2023/09/22 01:51:33;;;;;;;4.05;0.98;;;20.20;51.60;;;;;;5044486;28;20029;-64
2023/09/22 01:54:01;;;;;;;7.30;0.95;;;20.20;51.40;;;;;;5047467;28;20059;-65
2023/09/22 01:56:28;;;;;;;5.63;0.88;;;20.30;51.20;;;;;;5043645;28;20166;-65
2023/09/22 01:58:55;;;;;;;5.35;1.05;;;20.40;51.10;;;;;;5050002;28;20159;-65
2023/09/22 02:01:23;;;;;;;10.20;1.00;;;20.40;50.90;;;;;;5048310;28;20059;-66
2023/09/22 02:03:51;;;;;;;8.90;1.00;;;20.50;50.70;;;;;;5051248;28;20041;-65
2023/09/22 02:06:19;;;;;;;5.03;1.05;;;20.60;50.40;;;;;;5052290;28;20115;-65
2023/09/22 02:08:46;;;;;;;3.45;0.77;;;20.40;51.10;;;;;;5049626;28;20039;-65
2023/09/22 02:11:13;;;;;;;6.03;0.90;;;20.10;50.60;;;;;;5053835;28;20055;-66
2023/09/22 02:13:41;;;;;;;6.25;1.13;;;19.80;51.50;;;;;;5045167;28;20459;-66
2023/09/22 02:16:08;;;;;;;5.32;1.08;;;19.70;51.90;;;;;;5048850;28;20086;-65
2023/09/22 02:18:35;;;;;;;3.00;0.90;;;19.50;52.00;;;;;;5041552;28;20107;-64
2023/09/22 02:21:06;;;;;;;5.15;0.90;;;19.60;52.30;;;;;;5041345;28;20634;-66
2023/09/22 02:23:33;;;;;;;6.70;1.20;;;19.50;53.00;;;;;;5043994;28;20045;-65
2023/09/22 02:26:08;;;;;;;9.07;1.77;;;19.60;53.20;;;;;;5042990;28;20024;-65
2023/09/22 02:28:36;;;;;;;5.18;0.70;;;19.70;53.10;;;;;;5047888;28;20080;-67
2023/09/22 02:31:03;;;;;;;3.72;1.02;;;19.60;53.00;;;;;;5046582;28;20100;-67
2023/09/22 02:33:31;;;;;;;6.40;1.08;;;20.10;53.60;;;;;;5051989;28;20035;-67
2023/09/22 02:36:00;;;;;;;4.28;0.80;;;20.20;53.20;;;;;;5051263;28;20024;-67
2023/09/22 02:38:28;;;;;;;3.05;1.00;;;20.40;51.50;;;;;;5052663;28;20107;-65
2023/09/22 02:40:55;;;;;;;4.88;1.20;;;20.50;51.60;;;;;;5053856;28;20113;-65
2023/09/22 02:43:22;;;;;;;4.60;0.80;;;20.90;52.50;;;;;;5049218;28;20047;-67
2023/09/22 02:45:51;;;;;;;7.43;1.00;;;21.20;51.10;;;;;;5045968;28;20382;-65
2023/09/22 02:48:18;;;;;;;5.07;0.70;;;22.10;49.10;;;;;;5050875;28;20378;-67
2023/09/22 02:50:46;;;;;;;4.35;0.90;;;21.90;48.60;;;;;;5051185;28;20493;-66
2023/09/22 02:53:13;;;;;;;5.72;0.80;;;21.90;48.40;;;;;;5046328;28;20051;-67
2023/09/22 02:55:41;;;;;;;4.32;1.00;;;22.30;48.20;;;;;;5053988;28;20689;-67
2023/09/22 02:58:08;;;;;;;4.03;0.65;;;22.80;47.20;;;;;;5048595;28;20077;-67
2023/09/22 03:00:36;;;;;;;3.28;0.55;;;23.40;46.30;;;;;;5040797;28;20471;-66
2023/09/22 03:03:03;;;;;;;3.85;0.80;;;23.60;45.50;;;;;;5044641;28;20044;-65
2023/09/22 03:05:31;;;;;;;5.38;0.82;;;24.10;44.70;;;;;;5046355;28;20434;-65
2023/09/22 03:07:59;;;;;;;7.40;1.23;;;24.50;43.70;;;;;;5051034;28;20106;-65
2023/09/22 03:10:27;;;;;;;10.10;0.90;;;24.70;43.20;;;;;;5054629;28;20068;-65
2023/09/22 03:12:54;;;;;;;6.90;0.80;;;24.60;43.20;;;;;;5048061;28;20025;-65
2023/09/22 03:15:21;;;;;;;4.95;1.00;;;24.40;42.30;;;;;;5051165;28;20051;-65
2023/09/22 03:17:49;;;;;;;5.35;1.15;;;23.80;43.10;;;;;;5045880;28;20083;-65
2023/09/22 03:20:17;;;;;;;4.53;1.00;;;23.40;44.10;;;;;;5048208;28;20032;-65
2023/09/22 03:22:46;;;;;;;2.47;0.70;;;22.80;44.10;;;;;;5046496;28;20041;-67
2023/09/22 03:25:14;;;;;;;9.38;0.73;;;22.50;44.50;;;;;;5051728;28;20087;-66
2023/09/22 03:27:41;;;;;;;6.05;1.08;;;22.10;45.40;;;;;;5052315;28;20547;-66
2023/09/22 03:30:11;;;;;;;10.70;1.15;;;21.90;46.90;;;;;;5054357;28;20032;-65
2023/09/22 03:32:41;;;;;;;5.72;1.20;;;21.70;46.90;;;;;;5052063;28;20086;-65
2023/09/22 03:35:09;;;;;;;6.88;1.40;;;21.40;47.40;;;;;;5052817;28;20034;-66
2023/09/22 03:37:39;;;;;;;7.15;1.33;;;21.20;48.30;;;;;;5053620;28;20029;-65
2023/09/22 03:40:52;;;;;;;4.57;0.73;;;21.10;48.00;;;;;;5053148;28;20032;-66
2023/09/22 03:43:01;;;;;;;5.65;0.95;;;20.70;48.20;;;;;;5047561;28;20409;-65
2023/09/22 03:45:29;;;;;;;3.55;0.98;;;20.90;48.80;;;;;;5043765;28;20082;-65
2023/09/22 03:47:57;;;;;;;6.30;1.05;;;20.90;49.10;;;;;;5051508;28;20190;-65
2023/09/22 03:50:24;;;;;;;3.50;0.85;;;20.90;48.80;;;;;;5046122;28;20033;-66
2023/09/22 03:52:52;;;;;;;9.18;1.20;;;21.20;48.10;;;;;;5047108;28;20503;-64
2023/09/22 03:55:21;;;;;;;6.22;1.08;;;22.00;47.00;;;;;;5045204;28;20017;-65
2023/09/22 03:57:48;;;;;;;7.43;1.00;;;22.40;47.20;;;;;;5047666;28;20077;-65
2023/09/22 04:00:19;;;;;;;5.88;1.00;;;22.70;46.90;;;;;;5043686;28;20539;-64
2023/09/22 04:02:47;;;;;;;9.48;1.33;;;22.40;46.90;;;;;;5043669;28;20025;-66
2023/09/22 04:05:15;;;;;;;4.03;0.82;;;21.70;47.60;;;;;;5044156;28;20450;-65
2023/09/22 04:07:43;;;;;;;6.95;1.05;;;21.30;48.40;;;;;;5053714;28;20033;-65
2023/09/22 04:10:11;;;;;;;4.50;0.98;;;21.20;48.60;;;;;;5052654;28;20029;-65
2023/09/22 04:12:38;;;;;;;4.70;0.90;;;21.30;48.90;;;;;;5052387;28;20052;-65
2023/09/22 04:15:08;;;;;;;7.57;0.93;;;21.40;48.90;;;;;;5061248;28;20028;-66
2023/09/22 04:17:38;;;;;;;7.40;1.20;;;21.40;48.60;;;;;;5054981;28;20048;-65
2023/09/22 04:20:08;;;;;;;6.70;1.00;;;21.60;48.30;;;;;;5057119;28;20538;-65
2023/09/22 04:22:35;;;;;;;3.25;0.73;;;22.00;48.10;;;;;;5059277;28;20135;-65
2023/09/22 04:25:10;;;;;;;10.68;0.95;;;21.80;47.90;;;;;;5054873;28;20399;-65
2023/09/22 04:27:53;;;;;;;6.13;1.30;;;21.50;48.70;;;;;;5059908;28;20131;-66
2023/09/22 04:30:20;;;;;;;5.28;1.08;;;21.10;49.10;;;;;;5059321;28;20025;-66
2023/09/22 04:32:51;;;;;;;6.10;0.95;;;20.70;50.90;;;;;;5055423;28;20027;-65
2023/09/22 04:35:20;;;;;;;7.30;1.20;;;20.30;51.00;;;;;;5056440;28;20021;-65
2023/09/22 04:37:48;;;;;;;8.25;1.48;;;20.30;51.60;;;;;;5060346;28;20095;-67
2023/09/22 04:40:24;;;;;;;9.73;1.10;;;20.10;52.40;;;;;;5058505;28;20028;-66
2023/09/22 04:42:53;;;;;;;8.02;1.67;;;20.00;52.60;;;;;;5054604;28;20514;-65
2023/09/22 04:45:23;;;;;;;8.65;1.45;;;20.10;53.20;;;;;;5062275;28;20040;-67
2023/09/22 04:47:54;;;;;;;8.95;1.20;;;20.40;53.30;;;;;;5063339;28;20085;-66
2023/09/22 04:50:21;;;;;;;5.68;1.30;;;20.30;53.40;;;;;;5057495;28;20033;-65
2023/09/22 04:52:49;;;;;;;6.15;1.15;;;20.30;53.10;;;;;;5061129;28;20087;-67
2023/09/22 04:55:17;;;;;;;7.03;1.10;;;20.30;52.90;;;;;;5049693;28;20584;-67
2023/09/22 04:57:44;;;;;;;11.73;1.35;;;20.40;53.70;;;;;;5051996;28;20029;-65
2023/09/22 05:00:16;;;;;;;6.28;1.25;;;20.50;53.10;;;;;;5053960;28;20129;-65
2023/09/22 05:02:46;;;;;;;5.57;0.98;;;20.80;52.50;;;;;;5055317;28;20074;-67
2023/09/22 05:05:18;;;;;;;6.53;0.85;;;21.00;51.50;;;;;;5053541;28;20043;-66
2023/09/22 05:07:47;;;;;;;11.00;1.50;;;20.80;51.90;;;;;;5057703;28;20025;-65
2023/09/22 05:10:14;;;;;;;6.03;1.05;;;20.20;52.30;;;;;;5056917;28;20485;-65
2023/09/22 05:12:41;;;;;;;8.43;0.88;;;20.20;53.10;;;;;;5056816;28;20028;-66
2023/09/22 05:15:09;;;;;;;9.15;1.00;;;20.10;53.70;;;;;;5052753;28;20029;-65
2023/09/22 05:17:37;;;;;;;5.88;1.10;;;19.80;53.90;;;;;;5055737;28;20154;-65
2023/09/22 05:20:11;;;;;;;10.55;1.02;;;19.50;54.80;;;;;;5052136;28;20024;-65
2023/09/22 05:22:39;;;;;;;7.70;1.42;;;19.30;55.50;;;;;;5051171;28;20134;-65
2023/09/22 05:25:08;;;;;;;8.65;1.08;;;19.20;55.30;;;;;;5046488;28;20048;-64
2023/09/22 05:27:35;;;;;;;9.85;1.63;;;19.20;55.30;;;;;;5048121;28;20371;-65
2023/09/22 05:30:06;;;;;;;5.40;1.10;;;19.20;55.40;;;;;;5052341;28;20174;-66
2023/09/22 05:32:33;;;;;;;7.32;1.10;;;19.20;55.30;;;;;;5048268;28;20027;-66
2023/09/22 05:35:01;;;;;;;7.20;1.23;;;19.20;55.60;;;;;;5048774;28;20028;-65
2023/09/22 05:37:28;;;;;;;4.32;0.90;;;19.30;55.50;;;;;;5030094;28;20065;-65
2023/09/22 05:39:55;;;;;;;8.63;1.80;;;19.10;55.10;;;;;;5056528;28;20032;-65
2023/09/22 05:42:23;;;;;;;6.38;1.10;;;19.00;55.20;;;;;;5050873;28;20025;-65
2023/09/22 05:44:51;;;;;;;7.07;1.00;;;18.80;55.10;;;;;;5051195;28;20128;-65
2023/09/22 05:47:18;;;;;;;8.70;1.42;;;18.90;55.20;;;;;;5045244;28;20029;-65
2023/09/22 05:49:47;;;;;;;11.02;1.67;;;19.20;54.80;;;;;;5045698;28;20032;-64
2023/09/22 05:52:14;;;;;;;5.72;1.20;;;19.50;54.20;;;;;;5050815;28;20087;-64
2023/09/22 05:54:41;;;;;;;3.80;1.00;;;19.70;53.40;;;;;;5050075;28;20106;-65
2023/09/22 05:57:08;;;;;;;8.55;1.40;;;19.80;52.80;;;;;;5056519;28;20054;-64
2023/09/22 05:59:37;;;;;;;8.40;1.33;;;19.80;52.50;;;;;;5049132;28;20123;-65
2023/09/22 06:02:05;;;;;;;4.78;0.90;;;19.90;52.50;;;;;;5049523;28;20056;-65
2023/09/22 06:04:33;;;;;;;11.50;1.48;;;20.00;52.40;;;;;;5035817;28;20040;-65
2023/09/22 06:07:03;;;;;;;7.35;1.10;;;20.00;52.20;;;;;;5051215;28;20048;-65
2023/09/22 06:09:31;;;;;;;7.63;1.67;;;20.10;52.80;;;;;;5052073;28;20028;-65
2023/09/22 06:11:58;;;;;;;7.90;1.60;;;20.10;52.60;;;;;;5045698;28;20020;-64
2023/09/22 06:14:26;;;;;;;6.40;0.95;;;20.20;52.30;;;;;;5049366;28;20137;-65
2023/09/22 06:16:53;;;;;;;9.52;1.30;;;20.20;51.90;;;;;;5053666;28;20080;-65
2023/09/22 06:19:20;;;;;;;8.60;1.45;;;20.30;52.50;;;;;;5048091;28;20083;-65
2023/09/22 06:21:48;;;;;;;9.23;1.35;;;20.30;52.10;;;;;;5056678;28;20040;-64
2023/09/22 06:24:17;;;;;;;5.25;1.00;;;20.30;52.30;;;;;;5048047;28;20049;-65
2023/09/22 06:26:44;;;;;;;6.15;0.90;;;20.00;51.90;;;;;;5049438;28;20041;-65
2023/09/22 06:29:11;;;;;;;7.35;1.20;;;19.90;52.80;;;;;;5048212;28;20037;-66
2023/09/22 06:31:39;;;;;;;7.90;1.20;;;20.10;52.90;;;;;;5046613;28;20076;-65
2023/09/22 06:34:07;;;;;;;4.57;0.73;;;20.00;52.70;;;;;;5046208;28;20044;-65
2023/09/22 06:36:34;;;;;;;5.82;0.90;;;19.70;53.10;;;;;;5049383;28;20032;-65
2023/09/22 06:39:07;;;;;;;6.50;1.00;;;19.40;53.90;;;;;;5048497;28;20032;-65
2023/09/22 06:41:35;;;;;;;5.13;0.90;;;19.20;54.70;;;;;;5041977;28;20017;-65
2023/09/22 06:44:03;;;;;;;6.00;1.10;;;19.00;55.20;;;;;;5046690;28;20036;-66
2023/09/22 06:46:35;;;;;;;7.78;0.98;;;19.00;55.20;;;;;;5048007;28;20094;-66
2023/09/22 06:49:05;;;;;;;9.73;1.60;;;19.10;55.00;;;;;;5045319;28;20037;-66
2023/09/22 06:51:33;;;;;;;4.97;0.88;;;19.20;54.80;;;;;;5046307;28;20074;-66
2023/09/22 06:54:01;;;;;;;7.15;1.27;;;19.20;54.60;;;;;;5050396;28;20051;-65
2023/09/22 06:56:28;;;;;;;6.03;0.95;;;19.10;54.50;;;;;;5050745;28;20036;-65
2023/09/22 06:58:55;;;;;;;10.90;1.00;;;18.90;54.90;;;;;;5044208;28;20025;-67
2023/09/22 07:01:23;;;;;;;8.10;1.27;;;18.90;55.00;;;;;;5052614;28;20033;-65
2023/09/22 07:03:50;;;;;;;8.00;1.08;;;19.10;55.10;;;;;;5049191;28;20140;-65
2023/09/22 07:06:19;;;;;;;8.75;1.30;;;19.10;55.20;;;;;;5049066;28;20033;-65
2023/09/22 07:08:48;;;;;;;9.27;1.27;;;19.00;55.40;;;;;;5047323;28;20033;-66
2023/09/22 07:11:17;;;;;;;4.20;0.90;;;19.00;55.30;;;;;;5048789;28;20131;-66
2023/09/22 07:13:44;;;;;;;8.57;0.90;;;18.80;55.60;;;;;;5053210;28;20033;-64
2023/09/22 07:16:12;;;;;;;10.00;1.15;;;18.80;55.70;;;;;;5050047;28;20393;-67
2023/09/22 07:18:39;;;;;;;7.35;1.40;;;18.70;55.80;;;;;;5047199;28;20037;-66
2023/09/22 07:21:09;;;;;;;7.00;1.40;;;18.50;56.20;;;;;;5046827;28;20087;-66
2023/09/22 07:23:37;;;;;;;5.65;1.10;;;18.40;56.90;;;;;;5049644;28;20048;-65
2023/09/22 07:26:11;;;;;;;6.80;1.05;;;18.40;57.20;;;;;;5045824;28;20123;-65
2023/09/22 07:28:42;;;;;;;6.85;1.33;;;18.30;57.70;;;;;;5052033;28;20028;-65
2023/09/22 07:31:20;;;;;;;5.30;1.17;;;18.30;57.50;;;;;;5044705;28;20036;-67
2023/09/22 07:33:48;;;;;;;5.28;1.00;;;18.20;57.80;;;;;;5042525;28;20400;-65
2023/09/22 07:36:15;;;;;;;7.35;1.02;;;18.10;58.30;;;;;;5061744;28;20025;-65
2023/09/22 07:38:43;;;;;;;6.07;1.00;;;18.00;58.50;;;;;;5044347;28;20375;-66
2023/09/22 07:41:10;;;;;;;10.63;1.27;;;18.00;58.40;;;;;;5051558;28;20029;-66
2023/09/22 07:43:38;;;;;;;8.77;1.10;;;18.00;58.40;;;;;;5062887;28;20115;-65
2023/09/22 07:46:06;;;;;;;7.13;1.40;;;18.00;58.40;;;;;;5055490;28;20068;-65
2023/09/22 07:48:34;;;;;;;9.35;1.23;;;17.90;58.40;;;;;;5054326;28;20025;-65
2023/09/22 07:51:02;;;;;;;7.22;1.30;;;17.90;58.50;;;;;;5056685;28;20082;-65
2023/09/22 07:53:30;;;;;;;5.57;1.23;;;17.90;58.40;;;;;;5058610;28;20025;-65
2023/09/22 07:56:01;;;;;;;5.78;1.10;;;18.00;58.50;;;;;;5058011;28;20029;-65
2023/09/22 07:58:31;;;;;;;7.95;0.80;;;17.90;58.90;;;;;;5057847;28;20052;-66
2023/09/22 08:00:59;;;;;;;11.55;1.23;;;17.90;58.80;;;;;;5049048;28;20392;-66
2023/09/22 08:03:26;;;;;;;6.07;0.73;;;17.80;59.10;;;;;;5054178;28;20482;-66
2023/09/22 08:05:54;;;;;;;8.32;1.10;;;17.80;59.10;;;;;;5054163;28;20489;-66
2023/09/22 08:08:21;;;;;;;5.30;1.05;;;17.80;59.40;;;;;;5053823;28;20036;-65
2023/09/22 08:10:49;;;;;;;7.88;1.33;;;17.80;59.50;;;;;;5054326;28;20032;-65
2023/09/22 08:13:16;;;;;;;16.00;1.90;;;17.70;59.80;;;;;;5059213;28;20053;-65
2023/09/22 08:15:44;;;;;;;7.53;1.25;;;17.60;60.10;;;;;;5054333;28;20032;-66
2023/09/22 08:18:11;;;;;;;9.55;1.60;;;17.50;60.00;;;;;;5053031;28;20025;-65
2023/09/22 08:20:39;;;;;;;10.80;1.63;;;17.40;60.20;;;;;;5055298;28;20143;-66
2023/09/22 08:23:06;;;;;;;7.18;1.30;;;17.30;60.40;;;;;;5050201;28;20095;-66
2023/09/22 08:25:34;;;;;;;6.22;1.98;;;17.30;60.80;;;;;;5055453;28;20049;-66
2023/09/22 08:28:02;;;;;;;8.10;1.80;;;17.20;61.00;;;;;;5054140;28;20420;-67
2023/09/22 08:30:30;;;;;;;9.70;2.05;;;17.10;61.50;;;;;;5050553;28;20032;-66
2023/09/22 08:32:58;;;;;;;9.02;1.42;;;17.00;61.90;;;;;;5056651;28;20424;-66
2023/09/22 08:35:26;;;;;;;7.57;1.63;;;17.00;61.90;;;;;;5055586;28;20032;-68
2023/09/22 08:37:54;;;;;;;7.28;1.58;;;17.10;61.90;;;;;;5047213;28;20499;-68
2023/09/22 08:40:21;;;;;;;8.93;1.55;;;17.00;62.10;;;;;;5056237;28;20578;-67
2023/09/22 08:42:51;;;;;;;15.18;1.40;;;16.90;62.70;;;;;;5057206;28;20028;-69
2023/09/22 08:45:19;;;;;;;9.48;1.63;;;16.70;63.60;;;;;;5051601;28;20037;-68
2023/09/22 08:47:49;;;;;;;9.73;1.27;;;16.60;64.00;;;;;;5053181;28;20025;-67
2023/09/22 08:50:18;;;;;;;9.35;1.20;;;16.60;64.00;;;;;;5054715;28;20040;-68
2023/09/22 08:52:52;;;;;;;5.18;1.35;;;16.60;64.30;;;;;;5046823;28;20156;-69
2023/09/22 08:55:21;;;;;;;9.27;1.45;;;16.50;64.80;;;;;;5047216;28;20442;-69
2023/09/22 08:57:49;;;;;;;9.60;1.65;;;16.50;65.10;;;;;;5048831;28;20024;-69
2023/09/22 09:00:26;;;;;;;8.15;1.15;;;16.40;65.70;;;;;;5053108;28;20033;-69
2023/09/22 09:03:00;;;;;;;9.53;1.13;;;16.40;65.40;;;;;;5046474;28;20375;-69
2023/09/22 09:05:32;;;;;;;5.95;0.93;;;16.30;65.40;;;;;;5052075;28;20099;-68
2023/09/22 09:08:25;;;;;;;6.25;1.02;;;16.30;66.00;;;;;;5048464;28;20159;-66
2023/09/22 09:10:57;;;;;;;7.45;2.15;;;16.30;66.00;;;;;;5045650;28;20095;-67
2023/09/22 09:13:27;;;;;;;4.32;1.25;;;16.30;66.20;;;;;;5050179;28;20123;-68
2023/09/22 09:15:57;;;;;;;7.38;1.15;;;16.30;66.20;;;;;;5050116;28;20382;-70
2023/09/22 09:18:25;;;;;;;10.73;1.55;;;16.30;66.00;;;;;;5046429;28;20026;-70
2023/09/22 09:21:16;;;;;;;12.70;1.20;;;16.30;66.30;;;;;;5050950;28;20068;-68
2023/09/22 09:23:54;;;;;;;9.57;1.38;;;16.30;66.40;;;;;;5054026;28;20041;-67
2023/09/22 09:26:29;;;;;;;5.65;1.10;;;16.20;66.70;;;;;;5048778;28;20036;-70
2023/09/22 09:28:59;;;;;;;5.65;1.33;;;16.20;66.40;;;;;;5057564;28;20025;-68
2023/09/22 09:31:50;;;;;;;7.75;1.55;;;16.10;67.20;;;;;;5052567;28;20025;-68
2023/09/22 09:34:18;;;;;;;5.70;1.60;;;16.10;66.90;;;;;;5046568;28;20063;-68
2023/09/22 09:36:45;;;;;;;5.65;1.55;;;16.10;67.20;;;;;;5047326;28;20132;-67
2023/09/22 09:39:12;;;;;;;7.47;1.52;;;16.00;67.00;;;;;;5051442;28;20059;-68
2023/09/22 09:41:43;;;;;;;6.88;1.20;;;16.00;66.80;;;;;;5052379;28;20059;-67
2023/09/22 09:44:11;;;;;;;6.53;1.25;;;16.20;66.30;;;;;;5049756;28;20130;-67
2023/09/22 09:46:43;;;;;;;8.13;1.30;;;16.10;65.90;;;;;;5055565;28;20417;-68
2023/09/22 09:49:13;;;;;;;7.88;1.38;;;15.90;66.50;;;;;;5039715;28;20029;-68
2023/09/22 09:51:46;;;;;;;4.97;1.15;;;16.00;66.40;;;;;;5049835;28;20501;-68
2023/09/22 09:54:18;;;;;;;7.60;1.88;;;16.10;66.10;;;;;;5050819;28;20112;-68
2023/09/22 09:56:45;;;;;;;8.52;1.20;;;16.10;66.20;;;;;;5047262;28;20029;-68
2023/09/22 09:59:14;;;;;;;4.97;1.38;;;16.10;66.00;;;;;;5050226;28;20384;-71
2023/09/22 10:01:42;;;;;;;3.97;0.90;;;15.80;66.80;;;;;;5045200;28;20031;-68
2023/09/22 10:04:11;;;;;;;7.95;1.60;;;16.00;66.30;;;;;;5054480;28;20560;-67
2023/09/22 10:06:39;;;;;;;5.38;1.60;;;16.00;65.60;;;;;;5053111;28;20558;-67
2023/09/22 10:09:10;;;;;;;4.20;1.30;;;15.90;65.80;;;;;;5057216;28;20090;-67
2023/09/22 10:11:37;;;;;;;7.82;1.38;;;15.80;66.40;;;;;;5059104;28;20024;-68
2023/09/22 10:14:05;;;;;;;5.30;1.80;;;15.80;66.00;;;;;;5055590;28;20112;-67
2023/09/22 10:16:33;;;;;;;6.70;1.83;;;15.80;66.30;;;;;;5056297;28;20027;-68
2023/09/22 10:19:02;;;;;;;6.20;1.40;;;15.70;66.90;;;;;;5055880;28;20474;-69
2023/09/22 10:21:29;;;;;;;7.65;1.45;;;15.70;67.50;;;;;;5050415;28;20032;-69
2023/09/22 10:24:20;;;;;;;5.85;1.30;;;15.80;67.40;;;;;;5054489;28;20105;-68
2023/09/22 10:26:56;;;;;;;7.22;1.08;;;15.70;67.30;;;;;;5055209;28;20398;-68
2023/09/22 10:29:35;;;;;;;4.93;1.63;;;15.50;68.10;;;;;;5055511;28;20025;-69
2023/09/22 10:32:18;;;;;;;3.97;1.10;;;15.30;68.60;;;;;;5056643;28;20033;-68
2023/09/22 10:34:56;;;;;;;8.05;1.10;;;15.30;69.40;;;;;;5054918;28;20029;-68
2023/09/22 10:37:28;;;;;;;5.63;1.23;;;15.40;68.70;;;;;;5055560;28;20449;-68
2023/09/22 10:40:12;;;;;;;10.15;1.10;;;15.40;68.50;;;;;;5050575;28;20128;-69
2023/09/22 10:42:49;;;;;;;4.65;0.88;;;15.20;68.80;;;;;;5068191;28;20496;-69
2023/09/22 10:45:21;;;;;;;;;;;15.10;69.30;;;;;;5048896;28;20367;-69
2023/09/22 10:47:51;;;;;;;6.88;1.20;;;15.10;69.50;;;;;;5057224;28;20432;-69
2023/09/22 10:50:30;;;;;;;5.28;1.38;;;14.90;69.90;;;;;;5048600;28;20056;-66
2023/09/22 10:53:05;;;;;;;7.82;1.13;;;14.80;70.80;;;;;;5057239;28;20020;-67
2023/09/22 10:55:37;;;;;;;8.20;1.13;;;14.80;71.20;;;;;;5049825;28;20052;-68
2023/09/22 10:58:12;;;;;;;6.97;1.65;;;14.80;71.90;;;;;;5052901;28;20032;-68
2023/09/22 11:00:45;;;;;;;6.10;1.33;;;14.80;72.30;;;;;;5052567;28;20402;-68
2023/09/22 11:03:14;;;;;;;6.70;1.10;;;14.80;72.80;;;;;;5053911;28;20406;-68
2023/09/22 11:05:43;;;;;;;7.00;1.65;;;14.80;72.80;;;;;;5060507;28;20398;-68
2023/09/22 11:08:20;;;;;;;4.22;1.10;;;14.80;73.20;;;;;;5052285;28;20031;-68
2023/09/22 11:10:52;;;;;;;3.40;1.13;;;14.70;73.40;;;;;;5051249;28;20067;-68
2023/09/22 11:13:23;;;;;;;4.57;1.55;;;14.70;73.90;;;;;;5050522;28;20025;-68
2023/09/22 11:15:53;;;;;;;6.53;1.30;;;14.70;74.00;;;;;;5049436;28;20060;-68
2023/09/22 11:18:26;;;;;;;6.82;1.50;;;14.60;74.10;;;;;;5047997;28;20117;-68
2023/09/22 11:21:05;;;;;;;4.15;1.30;;;14.70;74.00;;;;;;5054331;28;20036;-67
2023/09/22 11:23:35;;;;;;;11.10;1.48;;;14.60;74.40;;;;;;5048959;28;20049;-68
2023/09/22 11:26:10;;;;;;;8.55;1.35;;;14.50;74.80;;;;;;5055758;28;20482;-66
2023/09/22 11:28:46;;;;;;;7.13;1.30;;;14.50;75.50;;;;;;5054194;28;20501;-69
2023/09/22 11:31:16;;;;;;;6.18;1.17;;;14.50;75.50;;;;;;5055224;28;20025;-68
2023/09/22 11:33:44;;;;;;;8.15;1.70;;;14.40;75.40;;;;;;5059490;28;20032;-69
2023/09/22 11:36:12;;;;;;;6.80;1.67;;;14.30;75.80;;;;;;5059076;28;20029;-69
2023/09/22 11:38:43;;;;;;;10.10;1.50;;;14.30;76.20;;;;;;5051525;28;20039;-69
2023/09/22 11:41:17;;;;;;;6.43;1.30;;;14.30;76.40;;;;;;5051677;28;20071;-69
2023/09/22 11:43:52;;;;;;;5.13;1.55;;;14.20;76.60;;;;;;5055707;28;20025;-67
2023/09/22 11:46:27;;;;;;;8.60;1.35;;;14.20;76.70;;;;;;5053743;28;20029;-68
2023/09/22 11:49:07;;;;;;;6.40;1.10;;;14.20;76.80;;;;;;5055226;28;20405;-69
2023/09/22 11:51:52;;;;;;;9.23;1.73;;;14.20;76.70;;;;;;5054978;28;20029;-68
2023/09/22 11:54:21;;;;;;;10.30;1.98;;;14.20;76.90;;;;;;5052479;28;20494;-69
2023/09/22 11:56:50;;;;;;;4.80;1.17;;;14.20;76.90;;;;;;5059107;28;20074;-67
2023/09/22 11:59:20;;;;;;;7.65;1.30;;;14.20;76.70;;;;;;5057092;28;20031;-69
2023/09/22 12:01:51;;;;;;;8.63;1.50;;;14.30;76.40;;;;;;5058924;28;20074;-68
2023/09/22 12:04:22;;;;;;;12.70;1.70;;;14.20;76.50;;;;;;5055978;28;20481;-69
2023/09/22 12:06:50;;;;;;;8.85;1.40;;;14.20;76.50;;;;;;5053178;28;20036;-68
2023/09/22 12:09:17;;;;;;;10.27;1.85;;;14.10;76.90;;;;;;5055444;28;20035;-68
2023/09/22 12:11:46;;;;;;;6.78;1.20;;;14.00;77.60;;;;;;5057167;28;20100;-68
2023/09/22 12:14:13;;;;;;;3.33;1.17;;;14.00;77.70;;;;;;5048956;28;20033;-68
2023/09/22 12:16:42;;;;;;;6.75;2.03;;;14.00;77.90;;;;;;5050805;28;20072;-68
2023/09/22 12:19:09;;;;;;;10.18;1.50;;;14.00;78.70;;;;;;5057751;28;20025;-68
2023/09/22 12:21:37;;;;;;;8.98;1.80;;;14.00;79.20;;;;;;5048606;28;20029;-68
2023/09/22 12:24:04;;;;;;;7.13;1.40;;;13.90;78.70;;;;;;5050328;28;20079;-68
2023/09/22 12:26:32;;;;;;;8.35;1.13;;;13.80;79.30;;;;;;5052865;28;20033;-67
2023/09/22 12:29:03;;;;;;;9.02;1.80;;;13.70;79.40;;;;;;5054142;28;20474;-68
2023/09/22 12:31:31;;;;;;;6.20;1.23;;;13.60;79.90;;;;;;5049638;28;20447;-68
2023/09/22 12:33:59;;;;;;;5.35;1.40;;;13.50;80.30;;;;;;5054802;28;20475;-68
2023/09/22 12:36:26;;;;;;;7.13;1.55;;;13.50;80.70;;;;;;5066442;28;20040;-69
2023/09/22 12:38:54;;;;;;;9.68;1.50;;;13.50;80.60;;;;;;5055342;28;20107;-68
2023/09/22 12:41:22;;;;;;;6.65;1.17;;;13.40;80.60;;;;;;5053992;28;20033;-69
2023/09/22 12:43:49;;;;;;;7.45;1.15;;;13.40;80.80;;;;;;5056813;28;20031;-68
2023/09/22 12:46:17;;;;;;;6.47;1.15;;;13.20;81.30;;;;;;5066746;28;20034;-68
2023/09/22 12:48:44;;;;;;;8.25;1.42;;;13.10;81.30;;;;;;5056922;28;20393;-69
2023/09/22 12:51:12;;;;;;;6.07;1.60;;;13.10;81.30;;;;;;5054518;28;20041;-68
2023/09/22 12:53:40;;;;;;;4.97;1.23;;;13.10;80.90;;;;;;5054955;28;20029;-67
2023/09/22 12:56:08;;;;;;;6.80;1.23;;;13.10;81.20;;;;;;5059204;28;20028;-68